Time;durP1;ratioP1;P1;durP2;ratioP2;P2;SDS_P1;SDS_P2;PMS_P1;PMS_P2;Temp;Humidity;BMP_temperature;BMP_pressure;BME280_temperature;BME280_humidity;BME280_pressure;Samples;Min_cycle;Max_cycle;Signal;HPM_P1;HPM_P2
2021/01/26 00:04:38;;;;;;;16.75;3.65;;;;;;;4.23;84.67;101208.13;10471155;28;20045;-80
2021/01/26 00:09:38;;;;;;;15.90;3.35;;;;;;;4.11;84.08;101178.47;10452716;28;20041;-81
2021/01/26 00:14:39;;;;;;;19.63;3.17;;;;;;;4.21;84.20;101210.31;10476626;28;20032;-81
2021/01/26 00:19:39;;;;;;;16.17;3.38;;;;;;;4.18;84.33;101216.28;10472576;28;20204;-81
2021/01/26 00:24:40;;;;;;;19.42;3.03;;;;;;;4.08;84.66;101194.34;10455405;28;20095;-84
2021/01/26 00:29:41;;;;;;;16.73;2.75;;;;;;;4.28;84.17;101219.78;10471336;28;20135;-82
2021/01/26 00:34:41;;;;;;;16.98;3.10;;;;;;;4.33;84.18;101219.69;10473045;28;20458;-85
2021/01/26 00:39:42;;;;;;;19.05;3.92;;;;;;;3.87;84.93;101156.63;10469681;28;20040;-83
2021/01/26 00:44:42;;;;;;;15.80;3.20;;;;;;;4.31;85.29;101229.91;10431409;28;20095;-81
2021/01/26 00:49:43;;;;;;;15.55;3.42;;;;;;;4.26;84.48;101227.31;10433637;28;20034;-82
2021/01/26 00:54:43;;;;;;;18.20;3.67;;;;;;;4.32;83.80;101236.81;10429912;28;20494;-84
2021/01/26 00:59:47;;;;;;;16.15;3.03;;;;;;;4.31;83.96;101249.41;10437803;28;20029;-82
2021/01/26 01:04:49;;;;;;;23.73;2.83;;;;;;;4.42;85.10;101244.56;10446000;28;20374;-82
2021/01/26 01:09:50;;;;;;;26.45;4.55;;;;;;;4.07;86.17;101193.56;10426347;28;20121;-84
2021/01/26 01:14:50;;;;;;;27.75;3.33;;;;;;;4.35;86.20;101244.22;10424812;28;20045;-80
2021/01/26 01:19:51;;;;;;;28.67;4.13;;;;;;;3.34;85.58;101112.69;10413414;28;20035;-79
2021/01/26 01:24:51;;;;;;;20.27;2.95;;;;;;;4.05;85.22;101211.81;10434846;28;20051;-84
2021/01/26 01:29:52;;;;;;;34.08;4.10;;;;;;;3.79;84.73;101177.66;10423689;28;20187;-80
2021/01/26 01:34:52;;;;;;;22.23;2.85;;;;;;;4.40;84.37;101281.59;10432064;28;20103;-83
2021/01/26 01:39:53;;;;;;;21.33;3.53;;;;;;;4.07;84.50;101263.13;10435474;28;20116;-81
2021/01/26 01:44:53;;;;;;;13.95;2.83;;;;;;;4.33;84.33;101297.28;10431208;28;20057;-81
2021/01/26 01:49:55;;;;;;;17.30;3.15;;;;;;;3.91;84.76;101240.50;10429624;28;20117;-80
2021/01/26 01:55:02;;;;;;;19.85;4.03;;;;;;;4.10;85.15;101305.31;10435332;28;20474;-80
2021/01/26 02:00:12;;;;;;;27.63;3.47;;;;;;;4.02;85.29;101308.69;10412376;28;20715;-81
2021/01/26 02:05:14;;;;;;;22.17;3.47;;;;;;;4.15;85.55;101318.56;10421301;28;20048;-81
2021/01/26 02:10:15;;;;;;;23.80;3.30;;;;;;;4.14;85.31;101333.06;10432324;28;20083;-80
2021/01/26 02:15:15;;;;;;;25.33;4.35;;;;;;;3.59;85.16;101237.72;10393053;28;20059;-79
2021/01/26 02:20:38;;;;;;;17.70;2.90;;;;;;;4.24;85.60;101332.03;10417737;28;20496;-80
2021/01/26 02:25:56;;;;;;;14.98;3.08;;;;;;;4.18;85.62;101328.66;10433022;28;20754;-81
2021/01/26 02:31:15;;;;;;;21.02;3.03;;;;;;;4.28;85.52;101342.88;10432220;28;20045;-82
2021/01/26 02:36:43;;;;;;;16.08;3.20;;;;;;;4.19;86.29;101343.63;10414773;28;20045;-80
2021/01/26 02:41:50;;;;;;;24.65;3.58;;;;;;;3.99;86.59;101309.31;10438106;28;20025;-82
2021/01/26 02:47:07;;;;;;;21.98;3.15;;;;;;;4.15;85.99;101345.31;10418718;28;20481;-82
2021/01/26 02:52:12;;;;;;;23.77;5.18;;;;;;;4.18;85.57;101360.75;10435117;28;20044;-80
2021/01/26 02:57:44;;;;;;;16.58;2.78;;;;;;;4.28;85.13;101369.66;10425049;28;20484;-83
2021/01/26 03:02:53;;;;;;;28.08;4.28;;;;;;;4.24;85.82;101369.50;10432381;28;20404;-86
2021/01/26 03:08:04;;;;;;;18.98;3.38;;;;;;;4.26;85.23;101371.84;10431253;28;20025;-80
2021/01/26 03:13:09;;;;;;;23.20;3.27;;;;;;;3.79;85.66;101327.41;10402325;28;20161;-81
2021/01/26 03:18:14;;;;;;;27.33;3.92;;;;;;;3.72;86.58;101323.56;10415783;28;20041;-81
2021/01/26 03:23:18;;;;;;;17.23;3.53;;;;;;;4.07;87.07;101375.50;10410454;28;20048;-81
2021/01/26 03:28:21;;;;;;;23.23;3.33;;;;;;;3.70;87.10;101323.84;10422553;28;20029;-86
2021/01/26 03:33:27;;;;;;;21.77;3.70;;;;;;;3.80;86.38;101350.38;10437954;28;20036;-86
2021/01/26 03:38:28;;;;;;;16.25;2.85;;;;;;;3.71;87.00;101332.66;10428953;28;20408;-80
2021/01/26 03:43:30;;;;;;;12.97;2.83;;;;;;;3.79;86.28;101354.16;10408609;28;20563;-81
2021/01/26 03:48:40;;;;;;;24.77;3.67;;;;;;;4.13;86.88;101417.06;10409521;28;20051;-82
2021/01/26 03:54:05;;;;;;;24.02;3.40;;;;;;;4.20;86.47;101425.47;10412617;28;20041;-83
2021/01/26 03:59:19;;;;;;;17.67;3.28;;;;;;;4.18;86.32;101427.66;10402817;28;20048;-85
2021/01/26 04:04:25;;;;;;;24.05;4.13;;;;;;;4.04;85.57;101397.47;10429391;28;20485;-80
2021/01/26 04:09:31;;;;;;;16.08;3.03;;;;;;;3.14;85.55;101263.56;10423008;28;20033;-81
2021/01/26 04:14:48;;;;;;;22.52;3.10;;;;;;;4.20;85.04;101438.84;10395067;28;20044;-84
2021/01/26 04:19:55;;;;;;;14.57;2.85;;;;;;;4.32;84.88;101456.28;10391962;28;20397;-82
2021/01/26 04:24:56;;;;;;;18.83;2.58;;;;;;;3.34;85.19;101319.25;10428634;28;20124;-85
2021/01/26 04:29:56;;;;;;;20.27;2.70;;;;;;;3.89;84.63;101400.50;10416962;28;20051;-86
2021/01/26 04:34:57;;;;;;;20.38;3.08;;;;;;;3.85;83.98;101415.53;10433011;28;20120;-82
2021/01/26 04:39:57;;;;;;;8.30;2.58;;;;;;;3.88;83.71;101414.94;10410705;28;20033;-82
2021/01/26 04:45:05;;;;;;;;;;;;;;;4.23;84.24;101480.28;10399526;28;20056;-81
2021/01/26 04:50:21;;;;;;;13.73;2.95;;;;;;;3.80;85.19;101435.94;10409281;28;19921;-81
2021/01/26 04:55:59;;;;;;;21.08;3.30;;;;;;;4.05;85.57;101484.69;10433509;28;20469;-81
2021/01/26 05:01:02;;;;;;;26.55;3.45;;;;;;;3.62;86.60;101439.50;10408601;28;20079;-82
2021/01/26 05:06:05;;;;;;;16.90;3.47;;;;;;;3.88;86.65;101495.19;10417888;28;20052;-82
2021/01/26 05:11:21;;;;;;;15.93;2.80;;;;;;;3.30;87.00;101411.78;10401031;28;20045;-81
2021/01/26 05:16:50;;;;;;;17.10;3.40;;;;;;;2.30;85.29;101275.22;10427717;28;20132;-81
2021/01/26 05:21:57;;;;;;;15.57;4.38;;;;;;;3.66;85.49;101475.25;10401210;28;20049;-82
2021/01/26 05:27:00;;;;;;;19.83;3.00;;;;;;;3.78;85.64;101502.31;10431356;28;20062;-76
2021/01/26 05:32:02;;;;;;;;;;;;;;;3.85;85.53;101522.53;10420850;28;20040;-83
2021/01/26 05:37:07;;;;;;;22.50;2.93;;;;;;;3.88;85.25;101541.47;10399055;28;20385;-84
2021/01/26 05:42:10;;;;;;;17.98;3.13;;;;;;;3.84;84.97;101526.31;10409445;28;20071;-83
2021/01/26 05:47:28;;;;;;;17.90;2.85;;;;;;;3.32;85.16;101473.75;10450751;28;20115;-84
2021/01/26 05:52:44;;;;;;;13.80;2.95;;;;;;;3.72;85.48;101524.91;10453405;28;20860;-83
2021/01/26 05:57:45;;;;;;;11.63;2.28;;;;;;;3.57;86.79;101527.84;10448503;28;20029;-79
2021/01/26 06:02:46;;;;;;;19.25;2.95;;;;;;;3.44;87.23;101528.63;10453847;28;20096;-83
2021/01/26 06:08:16;;;;;;;23.77;6.05;;;;;;;3.41;87.54;101547.91;10467198;28;20048;-84
2021/01/26 06:13:27;;;;;;;12.35;3.22;;;;;;;3.33;88.48;101550.16;10454776;28;20497;-84
2021/01/26 06:18:28;;;;;;;18.65;3.50;;;;;;;3.29;88.10;101554.50;10443557;28;20028;-83
2021/01/26 06:23:29;;;;;;;17.77;3.05;;;;;;;3.06;88.57;101518.81;10469735;28;20092;-80
2021/01/26 06:28:39;;;;;;;16.55;2.90;;;;;;;3.29;89.41;101565.19;10431188;28;20136;-81
2021/01/26 06:33:47;;;;;;;12.63;2.58;;;;;;;3.36;88.80;101573.63;10449693;28;20982;-81
2021/01/26 06:39:16;;;;;;;27.65;3.95;;;;;;;3.39;88.85;101578.38;10458910;28;20036;-81
2021/01/26 06:44:37;;;;;;;21.20;2.92;;;;;;;3.41;88.85;101577.28;10430995;28;20406;-80
2021/01/26 06:49:46;;;;;;;19.90;3.30;;;;;;;3.54;89.35;101597.94;10389510;28;20116;-81
2021/01/26 06:55:00;;;;;;;17.35;2.90;;;;;;;3.62;88.77;101599.91;10413536;28;20128;-81
2021/01/26 07:00:08;;;;;;;13.32;3.60;;;;;;;3.69;89.13;101613.75;10396738;28;20045;-81
2021/01/26 07:05:19;;;;;;;19.05;2.90;;;;;;;3.26;88.51;101544.38;10415795;28;20589;-82
2021/01/26 07:10:47;;;;;;;23.05;3.05;;;;;;;3.76;88.26;101616.81;10414315;28;20048;-81
2021/01/26 07:16:09;;;;;;;20.33;2.75;;;;;;;3.71;88.81;101635.59;10407048;28;20109;-82
2021/01/26 07:21:39;;;;;;;16.42;2.47;;;;;;;3.72;89.12;101658.59;10406378;28;20140;-84
2021/01/26 07:26:51;;;;;;;16.85;3.30;;;;;;;3.72;88.89;101647.13;10402731;28;20053;-81
2021/01/26 07:32:18;;;;;;;18.83;4.00;;;;;;;3.38;88.67;101606.19;10413266;28;20473;-80
2021/01/26 07:37:26;;;;;;;26.30;2.70;;;;;;;3.38;87.72;101616.88;10406306;28;20037;-81
2021/01/26 07:42:41;;;;;;;;;;;;;;;;;;;;;
2021/01/26 07:48:13;;;;;;;17.77;2.25;;;;;;;3.86;87.68;101689.94;10407330;28;20040;-81
2021/01/26 07:53:40;;;;;;;12.02;2.80;;;;;;;3.83;88.10;101679.81;10400630;28;20045;-83
2021/01/26 07:58:44;;;;;;;15.85;2.35;;;;;;;3.43;88.21;101624.03;10420009;28;20041;-81
2021/01/26 08:03:44;;;;;;;15.02;3.20;;;;;;;3.12;88.96;101591.63;10416023;28;20032;-83
2021/01/26 08:08:55;;;;;;;23.05;3.15;;;;;;;3.81;89.00;101694.28;10391604;28;20068;-81
2021/01/26 08:13:59;;;;;;;19.75;2.58;;;;;;;3.74;88.85;101688.53;10407098;28;20067;-81
2021/01/26 08:19:00;;;;;;;10.95;2.53;;;;;;;3.15;88.57;101596.38;10444761;28;20049;-80
2021/01/26 08:24:34;;;;;;;20.73;2.80;;;;;;;3.63;89.16;101687.09;10404121;28;20057;-80
2021/01/26 08:29:38;;;;;;;15.07;2.80;;;;;;;3.60;89.38;101714.41;10405278;28;20085;-81
2021/01/26 08:34:39;;;;;;;15.45;2.08;;;;;;;3.53;89.20;101724.69;10441401;28;20060;-81
2021/01/26 08:39:44;;;;;;;23.43;3.93;;;;;;;3.08;89.36;101638.69;10422616;28;20040;-81
2021/01/26 08:44:46;;;;;;;14.02;1.98;;;;;;;3.52;88.35;101696.34;10410936;28;20061;-82
2021/01/26 08:49:46;;;;;;;15.00;2.05;;;;;;;3.71;88.25;101726.53;10433309;28;20127;-82
2021/01/26 08:54:49;;;;;;;13.85;2.22;;;;;;;3.66;87.80;101723.94;10396296;28;20055;-81
2021/01/26 08:59:49;;;;;;;16.50;2.72;;;;;;;3.64;88.12;101720.75;10416284;28;20420;-81
2021/01/26 09:04:52;;;;;;;;;;;;;;;3.89;87.67;101749.00;10415711;28;20072;-80
2021/01/26 09:09:53;;;;;;;15.23;2.50;;;;;;;3.14;87.27;101621.53;10420700;28;19947;-80
2021/01/26 09:15:00;;;;;;;19.83;2.33;;;;;;;4.26;86.27;101762.59;10415627;28;20475;-80
2021/01/26 09:20:26;;;;;;;20.00;2.75;;;;;;;4.65;83.66;101771.00;10395427;28;20037;-80
2021/01/26 09:25:37;;;;;;;13.20;2.40;;;;;;;5.01;82.25;101778.38;10437192;28;20080;-82
2021/01/26 09:30:42;;;;;;;13.10;2.10;;;;;;;5.48;78.02;101749.53;10384939;28;20033;-80
2021/01/26 09:35:49;;;;;;;9.75;3.17;;;;;;;6.33;74.84;101789.97;10436912;28;20052;-81
2021/01/26 09:41:12;;;;;;;13.50;2.60;;;;;;;5.37;76.70;101725.91;10414014;28;20071;-81
2021/01/26 09:46:38;;;;;;;14.60;2.10;;;;;;;4.19;79.45;101646.03;10370326;28;20065;-81
2021/01/26 09:51:59;;;;;;;13.35;2.08;;;;;;;4.76;81.75;101760.09;10412774;28;20039;-81
2021/01/26 09:57:04;;;;;;;14.10;2.05;;;;;;;4.72;81.94;101753.75;10431658;28;20052;-81
2021/01/26 10:02:06;;;;;;;20.25;2.88;;;;;;;4.92;80.79;101742.66;10414675;28;20044;-80
2021/01/26 10:07:10;;;;;;;;;;;;;;;5.85;79.59;101817.38;10432766;28;20085;-81
2021/01/26 10:12:34;;;;;;;9.73;2.03;;;;;;;7.17;73.42;101823.25;10426787;28;19919;-81
2021/01/26 10:17:47;;;;;;;8.02;1.70;;;;;;;7.12;71.04;101761.53;10401545;28;20059;-81
2021/01/26 10:22:59;;;;;;;;;;;;;;;;;;;;;
2021/01/26 10:28:54;;;;;;;11.80;2.45;;;;;;;6.55;70.17;101686.28;10423905;28;20524;-83
2021/01/26 10:40:34;;;;;;;18.92;1.90;;;;;;;7.46;70.97;101813.81;10404419;28;20095;-82
2021/01/26 10:45:38;;;;;;;14.13;2.05;;;;;;;6.51;72.04;101730.97;10425392;28;20448;-81
2021/01/26 10:50:41;;;;;;;12.23;1.83;;;;;;;7.25;71.55;101807.47;10397018;28;20110;-82
2021/01/26 10:55:44;;;;;;;8.55;1.73;;;;;;;6.80;71.71;101769.97;10404648;28;20060;-82
2021/01/26 11:00:45;;;;;;;16.58;2.10;;;;;;;6.98;71.66;101771.63;10429956;28;20542;-83
2021/01/26 11:05:45;;;;;;;7.25;1.50;;;;;;;6.87;72.32;101781.09;10412110;28;20025;-82
2021/01/26 11:10:46;;;;;;;17.85;4.15;;;;;;;6.87;71.96;101791.84;10410139;28;20651;-82
2021/01/26 11:15:49;;;;;;;9.55;1.90;;;;;;;6.61;71.67;101797.88;10388097;28;20040;-81
2021/01/26 11:20:50;;;;;;;9.40;1.60;;;;;;;6.55;71.21;101777.59;10415307;28;20966;-81
2021/01/26 11:25:51;;;;;;;12.32;2.00;;;;;;;6.86;69.32;101774.09;10411957;28;20032;-82
2021/01/26 11:31:35;;;;;;;11.15;2.03;;;;;;;6.57;68.20;101719.00;10406710;28;20037;-81
2021/01/26 11:36:55;;;;;;;8.85;1.77;;;;;;;7.15;68.36;101803.94;10372433;28;20045;-80
2021/01/26 11:41:56;;;;;;;5.68;1.10;;;;;;;6.12;66.86;101649.28;10415658;28;20612;-81
2021/01/26 11:47:01;;;;;;;7.65;1.40;;;;;;;7.15;67.47;101809.31;10416395;28;20049;-81
2021/01/26 11:52:02;;;;;;;11.38;1.55;;;;;;;7.16;66.95;101794.75;10400410;28;20044;-82
2021/01/26 11:57:03;;;;;;;5.90;1.35;;;;;;;7.10;67.35;101790.66;10426104;28;20665;-81
2021/01/26 12:02:03;;;;;;;11.48;2.17;;;;;;;6.74;67.15;101782.75;10427988;28;20171;-80
2021/01/26 12:07:04;;;;;;;9.88;1.40;;;;;;;6.77;68.01;101784.81;10405256;28;20052;-81
2021/01/26 12:12:05;;;;;;;7.13;1.98;;;;;;;6.46;67.32;101733.78;10425618;28;20065;-80
2021/01/26 12:17:05;;;;;;;9.95;1.45;;;;;;;6.93;65.56;101763.69;10401960;28;20156;-80
2021/01/26 12:22:06;;;;;;;8.35;1.20;;;;;;;5.84;63.83;101590.41;10405253;28;20151;-82
2021/01/26 12:27:06;;;;;;;7.18;1.40;;;;;;;6.94;63.53;101733.03;10396981;28;20051;-81
2021/01/26 12:32:08;;;;;;;10.40;1.27;;;;;;;6.99;62.80;101751.72;10414325;28;20037;-82
2021/01/26 12:37:23;;;;;;;;;;;;;;;;;;;;;
2021/01/26 12:42:29;;;;;;;6.00;1.05;;;;;;;6.69;60.79;101695.00;10392382;28;20040;-81
2021/01/26 12:47:34;;;;;;;2.63;0.88;;;;;;;6.27;59.65;101622.03;10424462;28;20053;-85
2021/01/26 12:52:37;;;;;;;12.15;1.27;;;;;;;7.04;59.79;101710.44;10411448;28;20397;-81
2021/01/26 12:57:41;;;;;;;6.85;1.05;;;;;;;7.40;61.15;101755.88;10382113;28;20033;-83
2021/01/26 13:02:44;;;;;;;6.05;1.02;;;;;;;7.33;61.60;101772.50;10401645;28;20037;-77
2021/01/26 13:07:44;;;;;;;7.95;0.80;;;;;;;7.52;63.49;101769.50;10407206;28;20106;-77
2021/01/26 13:12:51;;;;;;;6.93;2.17;;;;;;;7.13;68.40;101703.97;10407447;28;20322;-76
2021/01/26 13:17:53;;;;;;;7.97;1.63;;;;;;;7.54;68.56;101759.22;10416777;28;20091;-77
2021/01/26 13:22:53;;;;;;;7.07;1.70;;;;;;;7.32;68.86;101754.00;10431362;28;20072;-76
2021/01/26 13:27:54;;;;;;;6.68;1.55;;;;;;;7.26;68.76;101755.25;10428109;28;20155;-77
2021/01/26 13:32:54;;;;;;;9.38;2.30;;;;;;;7.27;69.31;101759.53;10412907;28;20044;-77
2021/01/26 13:37:55;;;;;;;8.05;2.28;;;;;;;7.17;70.04;101774.84;10368831;28;20203;-78
2021/01/26 13:42:56;;;;;;;18.33;2.30;;;;;;;6.93;70.97;101780.59;10433861;28;20025;-78
2021/01/26 13:47:57;;;;;;;9.60;2.50;;;;;;;6.62;72.03;101783.34;10425760;28;20249;-78
2021/01/26 13:53:00;;;;;;;6.85;2.67;;;;;;;6.63;73.76;101814.50;10426365;28;20292;-78
2021/01/26 13:58:02;;;;;;;12.25;2.88;;;;;;;6.35;74.20;101734.06;10432096;28;20232;-77
2021/01/26 14:03:02;;;;;;;8.90;3.13;;;;;;;6.65;75.38;101814.94;10398896;28;20036;-80
2021/01/26 14:08:04;;;;;;;13.48;3.72;;;;;;;6.38;76.26;101790.94;10438981;28;20071;-81
2021/01/26 14:13:05;;;;;;;17.27;5.20;;;;;;;6.09;77.09;101778.75;10406700;28;20040;-81
2021/01/26 14:18:06;;;;;;;13.05;4.63;;;;;;;6.13;76.92;101811.94;10419842;28;20507;-81
2021/01/26 14:23:06;;;;;;;10.48;3.75;;;;;;;5.69;76.48;101759.78;10414947;28;20045;-83
2021/01/26 14:28:07;;;;;;;9.15;3.80;;;;;;;5.32;77.07;101697.34;10426543;28;20075;-82
2021/01/26 14:33:08;;;;;;;13.05;3.75;;;;;;;5.05;77.70;101650.72;10399811;28;20037;-81
2021/01/26 14:38:08;;;;;;;11.40;3.90;;;;;;;6.02;77.52;101805.22;10427878;28;20099;-82
2021/01/26 14:43:09;;;;;;;7.90;2.88;;;;;;;5.33;76.87;101720.34;10423315;28;20044;-82
2021/01/26 14:48:09;;;;;;;10.73;3.03;;;;;;;5.86;76.58;101808.22;10418063;28;20077;-85
2021/01/26 14:53:10;;;;;;;9.75;3.15;;;;;;;5.84;76.85;101794.31;10392534;28;20033;-85
2021/01/26 14:58:11;;;;;;;12.20;4.30;;;;;;;5.78;77.18;101800.88;10417232;28;20470;-85
2021/01/26 15:03:11;;;;;;;11.80;4.72;;;;;;;5.65;77.42;101780.28;10427160;28;20622;-84
2021/01/26 15:08:12;;;;;;;12.93;4.50;;;;;;;5.37;77.69;101732.06;10407112;28;20739;-81
2021/01/26 15:13:12;;;;;;;10.57;4.35;;;;;;;5.73;78.10;101792.97;10420785;28;20045;-83
2021/01/26 15:18:13;;;;;;;17.90;5.60;;;;;;;5.73;78.07;101803.69;10409935;28;20083;-83
2021/01/26 15:23:13;;;;;;;8.48;4.30;;;;;;;5.01;78.59;101698.00;10408657;28;20048;-79
2021/01/26 15:28:14;;;;;;;11.98;4.25;;;;;;;5.42;78.58;101772.16;10423690;28;20461;-79
2021/01/26 15:33:14;;;;;;;13.27;5.53;;;;;;;5.11;79.47;101739.06;10426134;28;20041;-79
2021/01/26 15:38:15;;;;;;;15.25;4.38;;;;;;;5.20;79.64;101769.44;10424320;28;20052;-78
2021/01/26 15:43:15;;;;;;;7.95;4.47;;;;;;;5.11;80.74;101776.59;10422685;28;20041;-79
2021/01/26 15:48:15;;;;;;;14.35;4.90;;;;;;;5.13;81.18;101791.28;10428142;28;20918;-78
2021/01/26 15:53:16;;;;;;;17.33;4.78;;;;;;;4.63;82.03;101714.28;10419336;28;20589;-78
2021/01/26 15:58:17;;;;;;;11.85;4.45;;;;;;;4.81;82.50;101751.97;10402381;28;20040;-77
2021/01/26 16:03:17;;;;;;;10.85;4.63;;;;;;;4.98;83.43;101794.25;10410340;28;20052;-77
2021/01/26 16:08:18;;;;;;;13.05;4.72;;;;;;;4.73;83.82;101766.84;10402197;28;20041;-78
2021/01/26 16:13:18;;;;;;;7.70;3.85;;;;;;;4.81;84.76;101784.13;10423185;28;20086;-78
2021/01/26 16:18:19;;;;;;;9.15;3.83;;;;;;;4.71;85.56;101784.31;10389965;28;20240;-78
2021/01/26 16:23:20;;;;;;;10.90;4.30;;;;;;;4.61;85.72;101775.38;10422711;28;20041;-78
2021/01/26 16:28:20;;;;;;;13.80;4.68;;;;;;;4.35;86.34;101737.56;10413575;28;20087;-77
2021/01/26 16:33:21;;;;;;;8.02;4.22;;;;;;;4.26;85.95;101719.75;10417141;28;20041;-77
2021/01/26 16:38:21;;;;;;;7.13;4.40;;;;;;;4.59;86.60;101761.47;10429808;28;20066;-80
2021/01/26 16:43:23;;;;;;;7.25;4.50;;;;;;;4.51;86.63;101754.13;10410026;28;20049;-78
2021/01/26 16:48:24;;;;;;;8.88;4.38;;;;;;;4.53;86.64;101746.59;10427102;28;20045;-78
2021/01/26 16:53:24;;;;;;;10.35;4.93;;;;;;;4.40;86.75;101742.81;10436663;28;20549;-77
2021/01/26 16:58:25;;;;;;;7.20;4.00;;;;;;;4.56;87.08;101767.44;10431022;28;20033;-82
2021/01/26 17:03:26;;;;;;;8.90;4.60;;;;;;;4.13;86.99;101716.75;10435998;28;20032;-84
2021/01/26 17:08:29;;;;;;;7.30;4.03;;;;;;;4.32;86.75;101753.38;10431620;28;20037;-81
2021/01/26 17:13:30;;;;;;;11.63;4.78;;;;;;;4.42;87.17;101755.88;10431714;28;20048;-83
2021/01/26 17:18:30;;;;;;;11.35;4.75;;;;;;;4.26;87.20;101735.81;10440743;28;20040;-81
2021/01/26 17:23:31;;;;;;;9.32;4.05;;;;;;;4.42;87.21;101759.38;10427833;28;20040;-83
2021/01/26 17:28:31;;;;;;;10.43;4.88;;;;;;;4.13;87.29;101722.13;10435155;28;20041;-86
2021/01/26 17:33:32;;;;;;;13.40;4.70;;;;;;;4.38;87.09;101760.25;10425304;28;20061;-79
2021/01/26 17:38:32;;;;;;;8.35;4.57;;;;;;;4.00;87.18;101709.50;10427293;28;20079;-83
2021/01/26 17:43:33;;;;;;;12.02;4.70;;;;;;;4.11;87.40;101740.34;10431306;28;20088;-81
2021/01/26 17:48:36;;;;;;;10.15;4.72;;;;;;;3.77;87.05;101703.97;10401412;28;20091;-82
2021/01/26 17:53:36;;;;;;;12.60;5.25;;;;;;;4.11;86.35;101761.75;10418272;28;20126;-81
2021/01/26 17:58:37;;;;;;;14.07;5.22;;;;;;;4.04;85.99;101755.97;10411187;28;20210;-82
2021/01/26 18:03:37;;;;;;;10.73;4.95;;;;;;;3.91;85.62;101740.69;10378309;28;20048;-86
2021/01/26 18:08:38;;;;;;;13.05;5.47;;;;;;;3.91;84.44;101713.94;10395581;28;20186;-84
2021/01/26 18:13:38;;;;;;;11.98;4.88;;;;;;;4.02;83.37;101731.41;10408332;28;20045;-83
2021/01/26 18:18:39;;;;;;;10.30;5.30;;;;;;;3.97;82.06;101712.75;10426370;28;20033;-82
2021/01/26 18:23:40;;;;;;;17.33;6.20;;;;;;;3.79;81.67;101685.75;10431089;28;20041;-81
2021/01/26 18:28:40;;;;;;;17.55;6.15;;;;;;;3.77;82.04;101687.94;10424674;28;20175;-82
2021/01/26 18:33:41;;;;;;;21.10;7.65;;;;;;;3.45;82.73;101626.41;10413510;28;20385;-82
2021/01/26 18:38:42;;;;;;;19.25;7.22;;;;;;;4.04;81.96;101718.53;10403756;28;20055;-82
2021/01/26 18:43:42;;;;;;;21.17;7.88;;;;;;;3.66;82.34;101665.09;10418508;28;20060;-85
2021/01/26 18:48:43;;;;;;;17.55;7.88;;;;;;;3.99;81.94;101729.31;10405974;28;20084;-84
2021/01/26 18:53:45;;;;;;;18.25;6.72;;;;;;;4.08;82.58;101732.13;10411024;28;20044;-83
2021/01/26 18:58:46;;;;;;;15.77;6.22;;;;;;;3.99;82.30;101742.69;10438206;28;20533;-81
2021/01/26 19:03:49;;;;;;;12.52;5.50;;;;;;;3.84;81.70;101714.31;10442969;28;20041;-85
2021/01/26 19:08:50;;;;;;;10.85;5.63;;;;;;;3.52;81.75;101653.56;10401883;28;20553;-84
2021/01/26 19:13:50;;;;;;;10.68;5.22;;;;;;;3.91;80.40;101740.69;10458397;28;20119;-82
2021/01/26 19:18:51;;;;;;;11.30;5.47;;;;;;;3.58;79.87;101705.88;10410590;28;20033;-85
2021/01/26 19:23:52;;;;;;;12.13;5.03;;;;;;;3.72;79.91;101746.84;10414889;28;20497;-84
2021/01/26 19:28:56;;;;;;;13.27;4.90;;;;;;;3.73;78.98;101745.75;10404925;28;20520;-89
2021/01/26 19:33:57;;;;;;;12.85;5.20;;;;;;;3.38;78.86;101713.09;10414439;28;20058;-85
2021/01/26 19:38:58;;;;;;;10.20;4.65;;;;;;;3.29;78.10;101709.50;10416205;28;20625;-86
2021/01/26 19:43:58;;;;;;;10.88;5.13;;;;;;;2.90;77.48;101635.75;10415976;28;20041;-84
2021/01/26 19:48:59;;;;;;;13.00;5.10;;;;;;;3.35;76.07;101719.03;10406835;28;20051;-86
2021/01/26 19:54:09;;;;;;;12.18;5.13;;;;;;;2.79;75.99;101631.59;10385789;28;20096;-83
2021/01/26 19:59:09;;;;;;;11.50;5.25;;;;;;;3.39;76.91;101698.66;10414502;28;20036;-84
2021/01/26 20:04:10;;;;;;;14.50;5.80;;;;;;;3.33;76.65;101673.06;10413372;28;20505;-84
2021/01/26 20:09:13;;;;;;;12.38;5.80;;;;;;;3.10;76.66;101658.69;10408801;28;20057;-82
2021/01/26 20:14:13;;;;;;;10.20;5.15;;;;;;;3.26;76.17;101678.00;10389998;28;20048;-80
2021/01/26 20:19:14;;;;;;;17.52;5.63;;;;;;;3.28;76.39;101665.13;10428221;28;20045;-78
2021/01/26 20:24:16;;;;;;;15.20;5.72;;;;;;;3.22;76.87;101676.97;10385612;28;20798;-81
2021/01/26 20:29:17;;;;;;;;;;;;;;;2.89;77.48;101610.13;10427240;28;20044;-81
2021/01/26 20:34:17;;;;;;;14.35;5.90;;;;;;;2.83;77.58;101595.25;10399703;28;19957;-81
2021/01/26 20:39:18;;;;;;;11.32;4.93;;;;;;;2.93;77.91;101616.47;10408408;28;20064;-81
2021/01/26 20:44:19;;;;;;;14.05;5.90;;;;;;;2.95;78.60;101619.66;10393162;28;21793;-81
2021/01/26 20:49:20;;;;;;;11.95;5.28;;;;;;;2.98;78.03;101628.94;10390663;28;20102;-82
2021/01/26 20:54:20;;;;;;;10.57;5.07;;;;;;;3.03;77.81;101617.41;10412901;28;20045;-84
2021/01/26 20:59:21;;;;;;;10.40;5.07;;;;;;;2.98;78.13;101628.94;10418882;28;20041;-84
2021/01/26 21:04:25;;;;;;;9.73;4.60;;;;;;;2.59;77.75;101573.13;10395954;28;20515;-85
2021/01/26 21:09:31;;;;;;;14.20;4.85;;;;;;;2.98;77.40;101623.63;10392453;28;20036;-86
2021/01/26 21:14:32;;;;;;;12.18;4.85;;;;;;;2.51;77.30;101535.31;10426999;28;20041;-86
2021/01/26 21:19:33;;;;;;;9.67;5.13;;;;;;;3.02;76.68;101623.84;10415341;28;20562;-82
2021/01/26 21:24:34;;;;;;;12.60;5.95;;;;;;;2.82;75.95;101577.63;10424347;28;20035;-85
2021/01/26 21:29:34;;;;;;;11.15;4.80;;;;;;;2.83;76.85;101579.22;10401837;28;20044;-77
2021/01/26 21:34:35;;;;;;;13.05;4.78;;;;;;;3.00;76.26;101600.09;10410244;28;20802;-84
2021/01/26 21:39:35;;;;;;;10.23;5.10;;;;;;;2.78;76.74;101576.63;10413540;28;20036;-86
2021/01/26 21:44:36;;;;;;;7.80;4.43;;;;;;;2.39;76.02;101505.59;10401843;28;20057;-80
2021/01/26 21:49:36;;;;;;;12.18;4.38;;;;;;;3.16;75.71;101622.03;10385079;28;20041;-81
2021/01/26 21:54:39;;;;;;;10.93;5.40;;;;;;;2.71;76.17;101565.53;10385203;28;20634;-82
2021/01/26 21:59:40;;;;;;;10.10;4.50;;;;;;;3.05;76.77;101617.91;10398601;28;20049;-81
2021/01/26 22:04:40;;;;;;;9.25;4.22;;;;;;;3.00;76.49;101604.63;10407741;28;20041;-80
2021/01/26 22:10:04;;;;;;;7.82;4.15;;;;;;;2.66;75.49;101552.25;10377881;28;20041;-81
2021/01/26 22:15:17;;;;;;;7.93;3.70;;;;;;;2.65;74.64;101566.66;10413003;28;20734;-81
2021/01/26 22:20:22;;;;;;;10.00;4.18;;;;;;;2.73;75.69;101568.69;10380193;28;20049;-81
2021/01/26 22:25:24;;;;;;;;;;;;;;;3.07;74.85;101621.09;10413067;28;20059;-82
2021/01/26 22:30:25;;;;;;;8.25;3.95;;;;;;;2.89;74.20;101583.44;10380639;28;19924;-82
2021/01/26 22:35:33;;;;;;;8.38;4.22;;;;;;;3.07;74.28;101605.06;10412571;28;20043;-81
2021/01/26 22:41:00;;;;;;;8.07;3.92;;;;;;;3.05;73.41;101607.22;10407239;28;20040;-81
2021/01/26 22:46:17;;;;;;;7.00;4.28;;;;;;;3.08;73.74;101593.28;10405803;28;20073;-80
2021/01/26 22:51:18;;;;;;;10.02;4.22;;;;;;;2.64;74.07;101506.34;10395985;28;20128;-81
2021/01/26 22:56:19;;;;;;;7.82;3.22;;;;;;;3.04;75.75;101584.28;10400547;28;20470;-80
2021/01/26 23:01:20;;;;;;;10.48;3.75;;;;;;;2.45;78.29;101509.81;10405917;28;20065;-81
2021/01/26 23:06:20;;;;;;;11.63;3.42;;;;;;;2.42;81.05;101521.06;10380930;28;20037;-80
2021/01/26 23:11:21;;;;;;;7.88;3.35;;;;;;;2.54;82.28;101560.66;10394030;28;20041;-81
2021/01/26 23:16:22;;;;;;;4.82;2.90;;;;;;;2.48;82.86;101525.22;10397429;28;20478;-80
2021/01/26 23:21:23;;;;;;;7.72;3.05;;;;;;;2.33;82.57;101506.78;10418295;28;20037;-80
2021/01/26 23:26:44;;;;;;;6.95;4.00;;;;;;;2.42;82.04;101523.72;10412438;28;20055;-80
2021/01/26 23:31:44;;;;;;;8.02;4.15;;;;;;;1.76;81.08;101401.88;10372694;28;20037;-82
2021/01/26 23:36:45;;;;;;;9.98;4.18;;;;;;;2.27;81.65;101471.34;10408015;28;20047;-82
2021/01/26 23:41:45;;;;;;;7.05;3.47;;;;;;;2.59;81.88;101519.75;10378939;28;20037;-80
2021/01/26 23:46:47;;;;;;;10.18;4.57;;;;;;;2.41;83.26;101503.44;10420093;28;20053;-80